Time;durP1;ratioP1;P1;durP2;ratioP2;P2;SDS_P1;SDS_P2;PMS_P1;PMS_P2;Temp;Humidity;BMP_temperature;BMP_pressure;BME280_temperature;BME280_humidity;BME280_pressure;Samples;Min_cycle;Max_cycle;Signal;HPM_P1;HPM_P2
2023/07/06 00:01:11;;;;;;;1999.90;999.90;;;13.00;99.90;;;;;;4916578;29;20040;-72
2023/07/06 00:03:38;;;;;;;1999.90;999.90;;;13.00;99.90;;;;;;4900914;29;20052;-72
2023/07/06 00:06:08;;;;;;;1999.90;999.90;;;13.00;99.90;;;;;;4917608;29;20052;-73
2023/07/06 00:08:37;;;;;;;1999.90;999.90;;;13.00;99.90;;;;;;4917591;29;20052;-73
2023/07/06 00:11:04;;;;;;;1999.90;999.90;;;13.00;99.90;;;;;;4917598;29;20087;-72
2023/07/06 00:13:32;;;;;;;1999.90;999.90;;;13.10;99.90;;;;;;4916532;29;20508;-72
2023/07/06 00:15:59;;;;;;;1999.90;999.90;;;13.10;99.90;;;;;;4916353;29;20374;-73
2023/07/06 00:18:26;;;;;;;1999.90;999.90;;;13.10;99.90;;;;;;4917375;29;20056;-73
2023/07/06 00:20:51;;;;;;;1999.90;999.90;;;13.10;99.90;;;;;;4900352;29;20443;-72
2023/07/06 00:23:17;;;;;;;1999.90;999.90;;;13.10;99.90;;;;;;4917466;29;20134;-72
2023/07/06 00:25:43;;;;;;;1999.90;999.90;;;13.10;99.90;;;;;;4900756;29;20052;-72
2023/07/06 00:28:10;;;;;;;1999.90;999.90;;;13.10;99.90;;;;;;4916395;29;20084;-72
2023/07/06 00:30:53;;;;;;;1999.90;999.90;;;13.10;99.90;;;;;;4917884;29;20103;-73
2023/07/06 00:33:20;;;;;;;1999.90;999.90;;;13.00;99.90;;;;;;4916249;29;20136;-73
2023/07/06 00:35:47;;;;;;;1999.90;999.90;;;13.00;99.90;;;;;;4916082;29;20108;-73
2023/07/06 00:38:15;;;;;;;1999.90;999.90;;;13.00;99.90;;;;;;4918041;29;20108;-72
2023/07/06 00:40:49;;;;;;;1999.90;999.90;;;13.00;99.90;;;;;;4916042;29;20485;-72
2023/07/06 00:43:21;;;;;;;1999.90;999.90;;;13.00;99.90;;;;;;4916806;29;20477;-73
2023/07/06 00:45:52;;;;;;;1999.90;999.90;;;13.00;99.90;;;;;;4917214;29;20106;-72
2023/07/06 00:48:34;;;;;;;1999.90;999.90;;;13.00;99.90;;;;;;4917204;29;20090;-73
2023/07/06 00:51:04;;;;;;;1999.90;999.90;;;13.00;99.90;;;;;;4917114;29;20092;-72
2023/07/06 00:53:33;;;;;;;1999.90;999.90;;;13.00;99.90;;;;;;4917068;29;20116;-73
2023/07/06 00:55:59;;;;;;;1999.90;999.90;;;13.00;99.90;;;;;;4916126;29;20048;-74
2023/07/06 00:58:35;;;;;;;1999.90;999.90;;;12.90;99.90;;;;;;4915938;29;20087;-74
2023/07/06 01:01:06;;;;;;;1999.90;999.90;;;12.90;99.90;;;;;;4917674;29;20397;-72
2023/07/06 01:03:43;;;;;;;1999.90;999.90;;;12.90;99.90;;;;;;4916815;29;20568;-72
2023/07/06 01:06:13;;;;;;;1999.90;999.90;;;12.90;99.90;;;;;;4917128;29;20079;-73
2023/07/06 01:08:39;;;;;;;1999.90;999.90;;;12.90;99.90;;;;;;4916668;29;20103;-73
2023/07/06 01:11:08;;;;;;;1999.90;999.90;;;12.90;99.90;;;;;;4917011;29;20096;-73
2023/07/06 01:13:34;;;;;;;1999.90;999.90;;;12.90;99.90;;;;;;4916899;29;20445;-73
2023/07/06 01:16:26;;;;;;;1999.90;999.90;;;12.90;99.90;;;;;;4917574;29;20091;-72
2023/07/06 01:19:20;;;;;;;1999.90;999.90;;;12.90;99.90;;;;;;4916953;29;20044;-73
2023/07/06 01:22:12;;;;;;;1999.90;999.90;;;12.90;99.90;;;;;;4917643;29;20056;-72
2023/07/06 01:24:57;;;;;;;1999.90;999.90;;;12.90;99.90;;;;;;4916776;29;20096;-73
2023/07/06 01:27:56;;;;;;;1999.90;999.90;;;12.90;99.90;;;;;;4916718;29;20048;-73
2023/07/06 01:30:59;;;;;;;1999.90;999.90;;;12.90;99.90;;;;;;4917431;29;20067;-73
2023/07/06 01:33:36;;;;;;;1999.90;999.90;;;12.80;99.90;;;;;;4920284;29;20366;-73
2023/07/06 01:36:23;;;;;;;1999.90;999.90;;;12.80;99.90;;;;;;4920448;29;20106;-73
2023/07/06 01:38:48;;;;;;;1999.90;999.90;;;12.80;99.90;;;;;;4920320;29;20139;-73
2023/07/06 01:41:25;;;;;;;1999.90;999.90;;;12.80;99.90;;;;;;4920735;29;20126;-73
2023/07/06 01:43:51;;;;;;;1999.90;999.90;;;12.80;99.90;;;;;;4920514;29;20056;-72
2023/07/06 01:46:19;;;;;;;1999.90;999.90;;;12.80;99.90;;;;;;4903434;29;20048;-72
2023/07/06 01:48:45;;;;;;;1999.90;999.90;;;12.80;99.90;;;;;;4920059;29;20135;-73
2023/07/06 01:51:43;;;;;;;1999.90;999.90;;;12.80;99.90;;;;;;4918639;29;20135;-77
2023/07/06 01:54:13;;;;;;;1999.90;999.90;;;12.80;99.90;;;;;;4920341;29;20052;-73
2023/07/06 01:56:49;;;;;;;1999.90;999.90;;;12.80;99.90;;;;;;4920434;29;20039;-72
2023/07/06 01:59:19;;;;;;;1999.90;999.90;;;12.80;99.90;;;;;;4919946;29;20089;-73
2023/07/06 02:01:50;;;;;;;1999.90;999.90;;;12.80;99.90;;;;;;4919819;29;20075;-73
2023/07/06 02:04:20;;;;;;;1999.90;999.90;;;12.80;99.90;;;;;;4920624;29;20048;-72
2023/07/06 02:06:48;;;;;;;1999.90;999.90;;;12.80;99.90;;;;;;4918811;29;20044;-74
2023/07/06 02:09:18;;;;;;;1999.90;999.90;;;12.80;99.90;;;;;;4919654;29;20052;-72
2023/07/06 02:11:45;;;;;;;1999.90;999.90;;;12.80;99.90;;;;;;4919686;29;20058;-72
2023/07/06 02:14:10;;;;;;;1999.90;999.90;;;12.80;99.90;;;;;;4919569;29;20048;-72
2023/07/06 02:16:36;;;;;;;1999.90;999.90;;;12.80;99.90;;;;;;4919607;29;20044;-73
2023/07/06 02:19:03;;;;;;;1999.90;999.90;;;12.80;99.90;;;;;;4903099;29;20044;-72
2023/07/06 02:21:31;;;;;;;1999.90;999.90;;;12.90;99.90;;;;;;4919420;29;20056;-73
2023/07/06 02:23:57;;;;;;;1999.90;999.90;;;12.90;99.90;;;;;;4918108;29;20523;-73
2023/07/06 02:26:23;;;;;;;1999.90;999.90;;;12.90;99.90;;;;;;4919377;29;20055;-72
2023/07/06 02:28:48;;;;;;;1999.90;999.90;;;12.90;99.90;;;;;;4918308;29;20388;-72
2023/07/06 02:31:14;;;;;;;1999.90;999.90;;;12.90;99.90;;;;;;4918407;29;20044;-72
2023/07/06 02:33:40;;;;;;;1999.90;999.90;;;12.90;99.90;;;;;;4919759;29;20130;-73
2023/07/06 02:36:06;;;;;;;1999.90;999.90;;;12.90;99.90;;;;;;4919707;29;20099;-73
2023/07/06 02:38:33;;;;;;;1999.90;999.90;;;13.00;99.90;;;;;;4919169;29;20056;-73
2023/07/06 02:41:04;;;;;;;1999.90;999.90;;;13.00;99.90;;;;;;4919158;29;20477;-72
2023/07/06 02:43:30;;;;;;;1999.90;999.90;;;13.00;99.90;;;;;;4902804;29;20052;-73
2023/07/06 02:45:56;;;;;;;1999.90;999.90;;;13.00;99.90;;;;;;4918395;29;20099;-73
2023/07/06 02:48:24;;;;;;;1999.90;999.90;;;13.10;99.90;;;;;;4919011;29;20048;-73
2023/07/06 02:50:51;;;;;;;1999.90;999.90;;;13.10;99.90;;;;;;4918998;29;20044;-73
2023/07/06 02:53:17;;;;;;;1999.90;999.90;;;13.10;99.90;;;;;;4917849;29;20043;-73
2023/07/06 02:55:47;;;;;;;1999.90;999.90;;;13.10;99.90;;;;;;4918521;29;20541;-73
2023/07/06 02:58:13;;;;;;;1999.90;999.90;;;13.20;99.90;;;;;;4902163;29;20099;-73
2023/07/06 03:00:39;;;;;;;1999.90;999.90;;;13.20;99.90;;;;;;4918815;29;20107;-72
2023/07/06 03:03:07;;;;;;;1999.90;999.90;;;13.20;99.90;;;;;;4918790;29;20197;-72
2023/07/06 03:05:35;;;;;;;1999.90;999.90;;;13.20;99.90;;;;;;4918758;29;20382;-73
2023/07/06 03:08:02;;;;;;;1999.90;999.90;;;13.20;99.90;;;;;;4918746;29;20067;-73
2023/07/06 03:10:28;;;;;;;1999.90;999.90;;;13.20;99.90;;;;;;4918615;29;20044;-73
2023/07/06 03:12:54;;;;;;;1999.90;999.90;;;13.30;99.90;;;;;;4902693;29;20059;-72
2023/07/06 03:15:20;;;;;;;1999.90;999.90;;;13.30;99.90;;;;;;4919237;29;20080;-72
2023/07/06 03:17:50;;;;;;;1999.90;999.90;;;13.30;99.90;;;;;;4918484;29;20499;-73
2023/07/06 03:20:20;;;;;;;1999.90;999.90;;;13.30;99.90;;;;;;4918537;29;20052;-72
2023/07/06 03:22:48;;;;;;;1999.90;999.90;;;13.30;99.90;;;;;;4918377;29;20048;-73
2023/07/06 03:25:23;;;;;;;1999.90;999.90;;;13.30;99.90;;;;;;4918770;29;20044;-72
2023/07/06 03:27:49;;;;;;;1999.90;999.90;;;13.30;99.90;;;;;;4918319;29;20052;-72
2023/07/06 03:30:20;;;;;;;1999.90;999.90;;;13.30;99.90;;;;;;4917586;29;20050;-72
2023/07/06 03:32:46;;;;;;;1999.90;999.90;;;13.30;99.90;;;;;;4917352;29;20084;-73
2023/07/06 03:35:13;;;;;;;1999.90;999.90;;;13.30;99.90;;;;;;4918056;29;20501;-72
2023/07/06 03:37:42;;;;;;;1999.90;999.90;;;13.20;99.90;;;;;;4916939;29;20084;-72
2023/07/06 03:40:13;;;;;;;1999.90;999.90;;;13.30;99.90;;;;;;4916950;29;20059;-72
2023/07/06 03:42:44;;;;;;;1999.90;999.90;;;13.30;99.90;;;;;;4917965;29;20075;-73
2023/07/06 03:45:15;;;;;;;1999.90;999.90;;;13.30;99.90;;;;;;4918051;29;20528;-73
2023/07/06 03:47:49;;;;;;;1999.90;999.90;;;13.30;99.90;;;;;;4918042;29;20087;-72
2023/07/06 03:50:17;;;;;;;1999.90;999.90;;;13.30;99.90;;;;;;4918222;29;20055;-72
2023/07/06 03:52:44;;;;;;;1999.90;999.90;;;13.20;99.90;;;;;;4918003;29;20509;-73
2023/07/06 03:55:14;;;;;;;1999.90;999.90;;;13.20;99.90;;;;;;4917042;29;20055;-73
2023/07/06 03:57:40;;;;;;;1999.90;999.90;;;13.20;99.90;;;;;;4916794;29;20048;-73
2023/07/06 04:00:24;;;;;;;1999.90;999.90;;;13.20;99.90;;;;;;4917718;29;20048;-72
2023/07/06 04:02:54;;;;;;;1999.90;999.90;;;13.20;99.90;;;;;;4917821;29;20056;-73
2023/07/06 04:05:32;;;;;;;1999.90;999.90;;;13.20;99.90;;;;;;4900576;29;20497;-74
2023/07/06 04:07:59;;;;;;;1999.90;999.90;;;13.10;99.90;;;;;;4917720;29;20151;-73
2023/07/06 04:10:28;;;;;;;1999.90;999.90;;;13.10;99.90;;;;;;4917648;29;20044;-73
2023/07/06 04:12:54;;;;;;;1999.90;999.90;;;13.00;99.90;;;;;;4917600;29;20058;-73
2023/07/06 04:15:20;;;;;;;1999.90;999.90;;;13.00;99.90;;;;;;4918019;29;20040;-74
2023/07/06 04:17:47;;;;;;;1999.90;999.90;;;13.00;99.90;;;;;;4917305;29;20052;-73
2023/07/06 04:20:19;;;;;;;1999.90;999.90;;;13.10;99.90;;;;;;4916789;29;20052;-73
2023/07/06 04:22:51;;;;;;;1999.90;999.90;;;13.00;99.90;;;;;;4918176;29;20444;-74
2023/07/06 04:25:19;;;;;;;1999.90;999.90;;;13.10;99.90;;;;;;4917525;29;20160;-73
2023/07/06 04:27:46;;;;;;;1999.90;999.90;;;13.10;99.90;;;;;;4917424;29;20195;-73
2023/07/06 04:30:14;;;;;;;1999.90;999.90;;;13.10;99.90;;;;;;4917686;29;20441;-73
2023/07/06 04:32:41;;;;;;;1999.90;999.90;;;13.10;99.90;;;;;;4917392;29;20074;-73
2023/07/06 04:35:12;;;;;;;1999.90;999.90;;;13.20;99.90;;;;;;4917284;29;20052;-73
2023/07/06 04:37:37;;;;;;;1999.90;999.90;;;13.20;99.90;;;;;;4917934;29;20063;-74
2023/07/06 04:40:13;;;;;;;1999.90;999.90;;;13.20;99.90;;;;;;4917287;29;20052;-73
2023/07/06 04:42:40;;;;;;;1999.90;999.90;;;13.20;99.90;;;;;;4917367;29;20131;-73
2023/07/06 04:45:11;;;;;;;1999.90;999.90;;;13.20;99.90;;;;;;4917290;29;20055;-73
2023/07/06 04:47:38;;;;;;;1999.90;999.90;;;13.20;99.90;;;;;;4916611;29;20056;-73
2023/07/06 04:50:04;;;;;;;1999.90;999.90;;;13.30;99.90;;;;;;4917237;29;20052;-73
2023/07/06 04:52:31;;;;;;;1999.90;999.90;;;13.30;99.90;;;;;;4916558;29;20055;-73
2023/07/06 04:54:58;;;;;;;1999.90;999.90;;;13.30;99.90;;;;;;4916809;29;20107;-73
2023/07/06 04:57:25;;;;;;;1999.90;999.90;;;13.30;99.90;;;;;;4917651;29;20170;-74
2023/07/06 04:59:51;;;;;;;1999.90;999.90;;;13.40;99.90;;;;;;4917697;29;20220;-73
2023/07/06 05:02:17;;;;;;;1999.90;999.90;;;13.40;99.90;;;;;;4917854;29;20453;-73
2023/07/06 05:04:43;;;;;;;1999.90;999.90;;;13.50;99.90;;;;;;4900284;29;20444;-73
2023/07/06 05:07:12;;;;;;;1999.90;999.90;;;13.50;99.90;;;;;;4920729;29;20048;-73
2023/07/06 05:09:40;;;;;;;1999.90;999.90;;;13.50;99.90;;;;;;4919859;29;20059;-73
2023/07/06 05:12:07;;;;;;;1999.90;999.90;;;13.50;99.90;;;;;;4919704;29;20052;-73
2023/07/06 05:14:34;;;;;;;1999.90;999.90;;;13.50;99.90;;;;;;4920263;29;20051;-73
2023/07/06 05:17:00;;;;;;;1999.90;999.90;;;13.50;99.90;;;;;;4920027;29;20116;-73
2023/07/06 05:19:27;;;;;;;1999.90;999.90;;;13.50;99.90;;;;;;4921166;29;20055;-73
2023/07/06 05:21:56;;;;;;;1999.90;999.90;;;13.50;99.90;;;;;;4903841;29;20064;-72
2023/07/06 05:24:24;;;;;;;1999.90;999.90;;;13.60;99.90;;;;;;4920431;29;20180;-73
2023/07/06 05:26:50;;;;;;;1999.90;999.90;;;13.60;99.90;;;;;;4920884;29;20509;-72
2023/07/06 05:29:15;;;;;;;1999.90;999.90;;;13.60;99.90;;;;;;4919350;29;20090;-73
2023/07/06 05:31:44;;;;;;;1999.90;999.90;;;13.60;99.90;;;;;;4920390;29;20504;-73
2023/07/06 05:34:10;;;;;;;1999.90;999.90;;;13.60;99.90;;;;;;4919222;29;20057;-72
2023/07/06 05:36:36;;;;;;;1999.90;999.90;;;13.60;99.90;;;;;;4920373;29;20409;-73
2023/07/06 05:39:05;;;;;;;1999.90;999.90;;;13.60;99.90;;;;;;4920244;29;20059;-73
2023/07/06 05:41:31;;;;;;;1999.90;999.90;;;13.60;99.90;;;;;;4921012;29;20056;-74
2023/07/06 05:43:57;;;;;;;1999.90;999.90;;;13.60;99.90;;;;;;4919038;29;20441;-74
2023/07/06 05:46:23;;;;;;;1999.90;999.90;;;13.60;99.90;;;;;;4903270;29;20044;-73
2023/07/06 05:48:50;;;;;;;1999.90;999.90;;;13.60;99.90;;;;;;4918965;29;20087;-74
2023/07/06 05:51:16;;;;;;;1999.90;999.90;;;13.60;99.90;;;;;;4920224;29;20127;-74
2023/07/06 05:53:41;;;;;;;1999.90;999.90;;;13.60;99.90;;;;;;4919993;29;20488;-73
2023/07/06 05:56:08;;;;;;;1999.90;999.90;;;13.70;99.90;;;;;;4920078;29;20087;-73
2023/07/06 05:58:34;;;;;;;1999.90;999.90;;;13.70;99.90;;;;;;4920047;29;20055;-73
2023/07/06 06:01:00;;;;;;;1999.90;999.90;;;13.80;99.90;;;;;;4918765;29;20050;-73
2023/07/06 06:03:26;;;;;;;1999.90;999.90;;;13.80;99.90;;;;;;4919870;29;20048;-72
2023/07/06 06:05:53;;;;;;;1999.90;999.90;;;13.90;99.90;;;;;;4920588;29;20044;-73
2023/07/06 06:08:19;;;;;;;1999.90;999.90;;;14.00;99.90;;;;;;4919750;29;20040;-72
2023/07/06 06:10:45;;;;;;;1999.90;999.90;;;14.00;99.90;;;;;;4903054;29;20099;-72
2023/07/06 06:13:11;;;;;;;1999.90;999.90;;;14.10;99.90;;;;;;4920215;29;20111;-72
2023/07/06 06:15:37;;;;;;;1999.90;999.90;;;14.10;99.90;;;;;;4919530;29;20044;-72
2023/07/06 06:18:04;;;;;;;1999.90;999.90;;;14.10;99.90;;;;;;4902912;29;20048;-73
2023/07/06 06:20:32;;;;;;;1999.90;999.90;;;14.20;99.90;;;;;;4920340;29;20052;-72
2023/07/06 06:22:59;;;;;;;1999.90;999.90;;;14.30;99.90;;;;;;4919449;29;20052;-72
2023/07/06 06:25:25;;;;;;;1999.90;999.90;;;14.30;99.90;;;;;;4919463;29;20076;-72
2023/07/06 06:27:51;;;;;;;1999.90;999.90;;;14.40;99.90;;;;;;4903069;29;20095;-73
2023/07/06 06:30:16;;;;;;;1999.90;999.90;;;14.40;99.90;;;;;;4919918;29;20059;-73
2023/07/06 06:32:43;;;;;;;1999.90;999.90;;;14.50;99.90;;;;;;4918197;29;20078;-72
2023/07/06 06:35:22;;;;;;;1999.90;999.90;;;14.50;99.90;;;;;;4918926;29;20486;-72
2023/07/06 06:37:48;;;;;;;1999.90;999.90;;;14.60;99.90;;;;;;4919751;29;20052;-73
2023/07/06 06:40:14;;;;;;;1999.90;999.90;;;14.70;99.90;;;;;;4919983;29;20048;-73
2023/07/06 06:42:40;;;;;;;1999.90;999.90;;;14.70;99.90;;;;;;4919181;29;20130;-72
2023/07/06 06:45:07;;;;;;;1999.90;999.90;;;14.80;99.90;;;;;;4919113;29;20184;-72
2023/07/06 06:47:33;;;;;;;1999.90;999.90;;;14.90;99.90;;;;;;4919005;29;20056;-72
2023/07/06 06:49:59;;;;;;;1999.90;999.90;;;15.00;99.90;;;;;;4918983;29;20476;-72
2023/07/06 06:52:26;;;;;;;1999.90;999.90;;;15.00;99.90;;;;;;4918898;29;20468;-72
2023/07/06 06:54:52;;;;;;;1999.90;999.90;;;15.10;99.90;;;;;;4918887;29;20154;-74
2023/07/06 06:57:20;;;;;;;1999.90;999.90;;;15.10;99.90;;;;;;4917943;29;20083;-72
2023/07/06 06:59:47;;;;;;;1999.90;999.90;;;15.20;99.90;;;;;;4918846;29;20406;-73
2023/07/06 07:02:14;;;;;;;1999.90;999.90;;;15.30;99.90;;;;;;4917959;29;20052;-73
2023/07/06 07:04:40;;;;;;;1999.90;999.90;;;15.30;99.90;;;;;;4918819;29;20409;-72
2023/07/06 07:07:06;;;;;;;1999.90;999.90;;;15.50;99.90;;;;;;4918748;29;20048;-72
2023/07/06 07:09:32;;;;;;;1999.90;999.90;;;15.50;99.90;;;;;;4902158;29;20048;-72
2023/07/06 07:11:59;;;;;;;1999.90;999.90;;;15.60;99.90;;;;;;4918703;29;20127;-72
2023/07/06 07:14:25;;;;;;;1999.90;999.90;;;15.70;99.90;;;;;;4918503;29;20507;-72
2023/07/06 07:16:51;;;;;;;1999.90;999.90;;;15.70;99.90;;;;;;4918770;29;20528;-72
2023/07/06 07:19:19;;;;;;;1999.90;999.90;;;15.80;99.90;;;;;;4918515;29;20059;-72
2023/07/06 07:21:45;;;;;;;1999.90;999.90;;;15.80;99.90;;;;;;4919109;29;20052;-72
2023/07/06 07:24:11;;;;;;;1999.90;999.90;;;15.90;99.90;;;;;;4917217;29;20050;-72
2023/07/06 07:26:37;;;;;;;1999.90;999.90;;;15.90;99.90;;;;;;4917837;29;20095;-72
2023/07/06 07:29:03;;;;;;;1999.90;999.90;;;16.00;99.90;;;;;;4917850;29;20079;-72
2023/07/06 07:31:30;;;;;;;1999.90;999.90;;;16.10;99.90;;;;;;4918298;29;20048;-71
2023/07/06 07:33:56;;;;;;;1999.90;999.90;;;16.10;99.90;;;;;;4918085;29;20465;-71
2023/07/06 07:36:22;;;;;;;1999.90;999.90;;;16.20;99.90;;;;;;4917214;29;20115;-72
2023/07/06 07:38:49;;;;;;;1999.90;999.90;;;16.20;99.90;;;;;;4917069;29;20106;-71
2023/07/06 07:41:18;;;;;;;1999.90;999.90;;;16.30;99.90;;;;;;4918535;29;20055;-71
2023/07/06 07:43:46;;;;;;;1999.90;999.90;;;16.40;99.90;;;;;;4918913;29;20055;-71
2023/07/06 07:46:14;;;;;;;1999.90;999.90;;;16.40;99.90;;;;;;4920271;29;20052;-71
2023/07/06 07:48:45;;;;;;;1999.90;999.90;;;16.50;99.90;;;;;;4918194;29;20047;-70
2023/07/06 07:51:15;;;;;;;1999.90;999.90;;;16.50;99.90;;;;;;4918410;29;20040;-77
2023/07/06 07:53:44;;;;;;;1999.90;999.90;;;16.60;99.90;;;;;;4918311;29;20051;-72
2023/07/06 07:56:11;;;;;;;1999.90;999.90;;;16.60;99.90;;;;;;4918062;29;20059;-72
2023/07/06 07:58:39;;;;;;;1999.90;999.90;;;16.70;99.90;;;;;;4916839;29;20058;-72
2023/07/06 08:01:08;;;;;;;1999.90;999.90;;;16.80;99.90;;;;;;4917970;29;20051;-72
2023/07/06 08:03:35;;;;;;;1999.90;999.90;;;16.80;99.90;;;;;;4918800;29;20125;-73
2023/07/06 08:06:05;;;;;;;1999.90;999.90;;;16.90;99.90;;;;;;4917959;29;20040;-73
2023/07/06 08:08:32;;;;;;;1999.90;999.90;;;17.00;99.90;;;;;;4917197;29;20429;-73
2023/07/06 08:11:02;;;;;;;1999.90;999.90;;;17.10;99.90;;;;;;4917863;29;20366;-73
2023/07/06 08:13:29;;;;;;;1999.90;999.90;;;17.10;99.90;;;;;;4917057;29;20076;-73
2023/07/06 08:15:55;;;;;;;1999.90;999.90;;;17.10;99.90;;;;;;4888100;29;20056;-72
2023/07/06 08:18:24;;;;;;;1999.90;999.90;;;17.20;99.90;;;;;;4917798;29;20389;-73
2023/07/06 08:20:53;;;;;;;1999.90;999.90;;;17.30;99.90;;;;;;4917350;29;20048;-73
2023/07/06 08:23:24;;;;;;;1999.90;999.90;;;17.30;99.90;;;;;;4916832;29;20127;-73
2023/07/06 08:25:53;;;;;;;1999.90;999.90;;;17.30;99.90;;;;;;4916505;29;20099;-72
2023/07/06 08:28:23;;;;;;;1999.90;999.90;;;17.40;99.90;;;;;;4916424;29;20040;-71
2023/07/06 08:30:49;;;;;;;1999.90;999.90;;;17.40;99.90;;;;;;4917540;29;20046;-74
2023/07/06 08:33:15;;;;;;;1999.90;999.90;;;17.50;99.90;;;;;;4916382;29;20135;-72
2023/07/06 08:35:45;;;;;;;1999.90;999.90;;;17.60;99.90;;;;;;4916413;29;20056;-72
2023/07/06 08:38:12;;;;;;;1999.90;999.90;;;17.70;99.90;;;;;;4917584;29;20048;-72
2023/07/06 08:40:40;;;;;;;1999.90;999.90;;;17.80;99.90;;;;;;4920357;29;20485;-72
2023/07/06 08:43:12;;;;;;;1999.90;999.90;;;17.90;99.90;;;;;;4923565;29;20524;-71
2023/07/06 08:45:43;;;;;;;1999.90;999.90;;;18.00;99.90;;;;;;4922346;29;20048;-73
2023/07/06 08:48:17;;;;;;;1999.90;999.90;;;18.00;99.90;;;;;;4922618;29;20111;-71
2023/07/06 08:50:48;;;;;;;1999.90;999.90;;;18.10;99.90;;;;;;4924046;29;20135;-73
2023/07/06 08:53:15;;;;;;;1999.90;999.90;;;18.10;99.90;;;;;;4923691;29;20043;-72
2023/07/06 08:55:44;;;;;;;1999.90;999.90;;;18.10;99.90;;;;;;4923626;29;20050;-72
2023/07/06 08:58:29;;;;;;;1999.90;999.90;;;18.10;99.90;;;;;;4924216;29;20048;-73
2023/07/06 09:01:02;;;;;;;1999.90;999.90;;;18.10;99.90;;;;;;4924239;29;20048;-73
2023/07/06 09:03:35;;;;;;;1999.90;999.90;;;18.30;99.90;;;;;;4923675;29;20047;-70
2023/07/06 09:06:02;;;;;;;1999.90;999.90;;;18.40;99.90;;;;;;4922735;29;20483;-72
2023/07/06 09:08:28;;;;;;;1999.90;999.90;;;18.40;99.90;;;;;;4924493;29;20134;-73
2023/07/06 09:10:54;;;;;;;1999.90;999.90;;;18.40;99.90;;;;;;4922867;29;20110;-72
2023/07/06 09:13:24;;;;;;;1999.90;999.90;;;18.40;99.90;;;;;;4922557;29;20465;-72
2023/07/06 09:16:00;;;;;;;1999.90;999.90;;;18.40;99.90;;;;;;4923970;29;20095;-71
2023/07/06 09:18:29;;;;;;;1999.90;999.90;;;18.40;99.90;;;;;;4922880;29;20054;-72
2023/07/06 09:20:58;;;;;;;1999.90;999.90;;;18.40;99.90;;;;;;4923158;29;20043;-72
2023/07/06 09:23:24;;;;;;;1999.90;999.90;;;18.30;99.90;;;;;;4923771;29;20052;-73
2023/07/06 09:25:50;;;;;;;1999.90;999.90;;;18.30;99.90;;;;;;4923951;29;20051;-72
2023/07/06 09:28:29;;;;;;;1999.90;999.90;;;18.30;99.90;;;;;;4923613;29;20137;-72
2023/07/06 09:31:18;;;;;;;1999.90;999.90;;;18.20;99.90;;;;;;4923386;29;20135;-72
2023/07/06 09:33:49;;;;;;;1999.90;999.90;;;18.20;99.90;;;;;;4922368;29;20048;-73
2023/07/06 09:36:19;;;;;;;1999.90;999.90;;;18.10;99.90;;;;;;4922167;29;20561;-73
2023/07/06 09:38:45;;;;;;;1999.90;999.90;;;18.10;99.90;;;;;;4923151;29;20111;-73
2023/07/06 09:41:27;;;;;;;1999.90;999.90;;;18.10;99.90;;;;;;4922834;29;20052;-73
2023/07/06 09:44:03;;;;;;;1999.90;999.90;;;18.10;99.90;;;;;;4921966;29;20052;-74
2023/07/06 09:46:38;;;;;;;1999.90;999.90;;;18.00;99.90;;;;;;4922903;29;20295;-74
2023/07/06 09:49:15;;;;;;;1999.90;999.90;;;18.00;99.90;;;;;;4923157;29;20044;-76
2023/07/06 09:52:07;;;;;;;1999.90;999.90;;;18.10;99.90;;;;;;4921493;29;20091;-72
2023/07/06 09:54:39;;;;;;;1999.90;999.90;;;18.10;99.90;;;;;;4920551;29;20048;-72
2023/07/06 09:57:15;;;;;;;1999.90;999.90;;;18.10;99.90;;;;;;4919948;29;20481;-72
2023/07/06 09:59:44;;;;;;;1999.90;999.90;;;18.10;99.90;;;;;;4904085;29;20044;-73
2023/07/06 10:02:31;;;;;;;1999.90;999.90;;;18.10;99.90;;;;;;4920139;29;20400;-72
2023/07/06 10:05:30;;;;;;;1999.90;999.90;;;18.00;99.90;;;;;;4920821;29;20048;-74
2023/07/06 10:08:21;;;;;;;1999.90;999.90;;;18.00;99.90;;;;;;4903655;29;20063;-73
2023/07/06 10:10:58;;;;;;;1999.90;999.90;;;18.00;99.90;;;;;;4919680;29;20124;-73
2023/07/06 10:13:38;;;;;;;1999.90;999.90;;;18.00;99.90;;;;;;4921966;29;20087;-72
2023/07/06 10:16:15;;;;;;;1999.90;999.90;;;18.00;99.90;;;;;;4919608;29;20040;-74
2023/07/06 10:18:57;;;;;;;1999.90;999.90;;;18.10;99.90;;;;;;4919701;29;20059;-73
2023/07/06 10:21:29;;;;;;;1999.90;999.90;;;18.10;99.90;;;;;;4920492;29;20051;-75
2023/07/06 10:24:09;;;;;;;1999.90;999.90;;;18.10;99.90;;;;;;4920214;29;20103;-74
2023/07/06 10:26:41;;;;;;;1999.90;999.90;;;18.20;99.90;;;;;;4918970;29;20048;-73
2023/07/06 10:29:16;;;;;;;1999.90;999.90;;;18.20;99.90;;;;;;4920247;29;20425;-73
2023/07/06 10:32:04;;;;;;;1999.90;999.90;;;18.30;99.90;;;;;;4921987;29;20425;-74
2023/07/06 10:34:53;;;;;;;1999.90;999.90;;;18.30;99.90;;;;;;4918996;29;20533;-75
2023/07/06 10:37:24;;;;;;;1999.90;999.90;;;18.30;99.90;;;;;;4918952;29;20064;-74
2023/07/06 10:40:00;;;;;;;1999.90;999.90;;;18.30;99.90;;;;;;4919427;29;20059;-74
2023/07/06 10:42:31;;;;;;;1999.90;999.90;;;18.30;99.90;;;;;;4919119;29;20106;-74
2023/07/06 10:45:02;;;;;;;1999.90;999.90;;;18.40;99.90;;;;;;4919289;29;20045;-73
2023/07/06 10:47:41;;;;;;;1999.90;999.90;;;18.40;99.90;;;;;;4919229;29;20112;-75
2023/07/06 10:50:26;;;;;;;1999.90;999.90;;;18.60;99.90;;;;;;4919766;29;20098;-74
2023/07/06 10:53:32;;;;;;;1999.90;999.90;;;18.70;99.90;;;;;;4919029;29;20139;-74
2023/07/06 10:56:12;;;;;;;1999.90;999.90;;;18.90;99.90;;;;;;4918618;29;20048;-74
2023/07/06 10:59:00;;;;;;;1999.90;999.90;;;19.10;99.90;;;;;;4919011;29;20504;-73
2023/07/06 11:01:40;;;;;;;1999.90;999.90;;;19.30;99.90;;;;;;4919145;29;20103;-73
2023/07/06 11:04:41;;;;;;;1999.90;999.90;;;19.40;99.90;;;;;;4917646;29;20103;-73
2023/07/06 11:07:09;;;;;;;1999.90;999.90;;;19.50;99.90;;;;;;4918760;29;20130;-74
2023/07/06 11:10:12;;;;;;;1999.90;999.90;;;19.60;99.90;;;;;;4919564;29;20056;-73
2023/07/06 11:13:02;;;;;;;1999.90;999.90;;;19.70;99.90;;;;;;4917445;29;20104;-74
2023/07/06 11:15:39;;;;;;;1999.90;999.90;;;19.90;99.90;;;;;;4918566;29;20060;-74
2023/07/06 11:18:34;;;;;;;1999.90;999.90;;;19.90;99.90;;;;;;4918553;29;20566;-72
2023/07/06 11:21:20;;;;;;;1999.90;999.90;;;20.00;99.90;;;;;;4918786;29;20052;-74
2023/07/06 11:24:06;;;;;;;1999.90;999.90;;;19.90;99.90;;;;;;4919258;29;20155;-74
2023/07/06 11:26:41;;;;;;;1999.90;999.90;;;19.90;99.90;;;;;;4918561;29;20060;-73
2023/07/06 11:29:08;;;;;;;1999.90;999.90;;;20.00;99.90;;;;;;4918850;29;20448;-73
2023/07/06 11:31:48;;;;;;;1999.90;999.90;;;20.00;99.90;;;;;;4918334;29;20504;-73
2023/07/06 11:34:46;;;;;;;1999.90;999.90;;;20.10;99.90;;;;;;4918805;29;20048;-74
2023/07/06 11:37:25;;;;;;;1999.90;999.90;;;20.10;99.90;;;;;;4918771;29;20068;-73
2023/07/06 11:40:13;;;;;;;1999.90;999.90;;;20.10;99.90;;;;;;4917007;29;20052;-74
2023/07/06 11:42:50;;;;;;;1999.90;999.90;;;20.00;99.90;;;;;;4918042;29;20126;-73
2023/07/06 11:45:52;;;;;;;1999.90;999.90;;;20.00;99.90;;;;;;4918088;29;20481;-72
2023/07/06 11:48:34;;;;;;;1999.90;999.90;;;20.00;99.90;;;;;;4918112;29;20134;-74
2023/07/06 11:51:01;;;;;;;1999.90;999.90;;;20.10;99.90;;;;;;4918718;29;20056;-73
2023/07/06 11:53:53;;;;;;;1999.90;999.90;;;20.30;99.90;;;;;;4918182;29;20057;-71
2023/07/06 11:56:50;;;;;;;1999.90;999.90;;;20.30;99.90;;;;;;4918874;29;20462;-73
2023/07/06 11:59:37;;;;;;;1999.90;999.90;;;20.40;99.90;;;;;;4918340;29;20127;-71
2023/07/06 12:02:21;;;;;;;1999.90;999.90;;;20.50;99.90;;;;;;4917898;29;20055;-72
2023/07/06 12:04:49;;;;;;;1999.90;999.90;;;20.60;99.90;;;;;;4917849;29;20044;-73
2023/07/06 12:07:34;;;;;;;1999.90;999.90;;;20.50;99.90;;;;;;4918310;29;20055;-74
2023/07/06 12:10:04;;;;;;;1999.90;999.90;;;20.50;99.90;;;;;;4917787;29;20052;-74
2023/07/06 12:12:30;;;;;;;1999.90;999.90;;;20.50;99.90;;;;;;4916552;29;20052;-73
2023/07/06 12:14:58;;;;;;;1999.90;999.90;;;20.50;99.90;;;;;;4916964;29;20055;-73
2023/07/06 12:17:24;;;;;;;1999.90;999.90;;;20.60;99.90;;;;;;4916933;29;20052;-72
2023/07/06 12:19:57;;;;;;;1999.90;999.90;;;20.60;99.90;;;;;;4917582;29;20047;-73